createdAt,value
2023-01-09T00:02:15.831Z,50.31
2023-01-09T00:05:01.729Z,50.62
2023-01-09T00:07:47.671Z,50.92
2023-01-09T00:10:33.591Z,50.69
2023-01-09T00:13:19.673Z,50.98
2023-01-09T00:16:07.473Z,50.47
2023-01-09T00:18:53.938Z,50.69
2023-01-09T00:21:40.181Z,50.64
2023-01-09T00:24:26.066Z,50.79
2023-01-09T00:27:12.452Z,50.61
2023-01-09T00:29:58.656Z,51.03
2023-01-09T00:32:44.850Z,50.82
2023-01-09T00:35:30.788Z,51.06
2023-01-09T00:38:16.638Z,50.51
2023-01-09T00:41:03.406Z,50.80
2023-01-09T00:43:53.348Z,50.79
2023-01-09T00:46:42.765Z,51.00
2023-01-09T00:49:30.401Z,50.62
2023-01-09T00:52:16.509Z,50.93
2023-01-09T00:55:02.901Z,50.83
2023-01-09T00:57:49.075Z,50.86
2023-01-09T01:00:35.153Z,50.86
2023-01-09T01:03:21.113Z,51.03
2023-01-09T01:06:25.377Z,50.71
2023-01-09T01:09:11.435Z,51.13
2023-01-09T01:11:57.198Z,51.18
2023-01-09T01:14:43.231Z,51.29
2023-01-09T01:17:28.941Z,51.18
2023-01-09T01:20:17.813Z,51.18
2023-01-09T01:23:03.813Z,50.94
2023-01-09T01:25:49.577Z,50.99
2023-01-09T01:28:35.544Z,51.13
2023-01-09T01:31:21.361Z,51.39
2023-01-09T01:34:07.245Z,51.23
2023-01-09T01:36:53.151Z,51.39
2023-01-09T01:39:38.896Z,51.11
2023-01-09T01:42:24.822Z,51.17
2023-01-09T01:45:14.961Z,51.45
2023-01-09T01:48:11.623Z,51.04
2023-01-09T01:51:01.428Z,51.61
2023-01-09T01:53:50.532Z,51.37
2023-01-09T01:56:39.586Z,51.20
2023-01-09T01:59:29.308Z,51.38
2023-01-09T02:02:15.382Z,51.42
2023-01-09T02:05:02.091Z,51.44
2023-01-09T02:07:48.891Z,51.26
2023-01-09T02:10:35.746Z,51.24
2023-01-09T02:13:22.102Z,51.27
2023-01-09T02:16:14.434Z,51.62
2023-01-09T02:19:03.327Z,51.80
2023-01-09T02:22:34.302Z,51.37
2023-01-09T02:25:39.269Z,51.78
2023-01-09T02:28:37.428Z,51.74
2023-01-09T02:31:46.688Z,51.65
2023-01-09T02:35:02.046Z,51.72
2023-01-09T02:38:00.188Z,51.50
2023-01-09T02:41:01.642Z,51.59
2023-01-09T02:43:48.338Z,51.63
2023-01-09T02:46:34.272Z,51.75
2023-01-09T02:49:20.152Z,51.77
2023-01-09T02:52:24.105Z,51.87
2023-01-09T02:55:28.871Z,51.75
2023-01-09T02:58:20.602Z,51.76
2023-01-09T03:01:25.301Z,51.64
2023-01-09T03:04:32.519Z,52.25
2023-01-09T03:07:25.762Z,51.65
2023-01-09T03:10:18.145Z,51.85
2023-01-09T03:13:05.718Z,51.69
2023-01-09T03:15:54.225Z,52.15
2023-01-09T03:18:40.315Z,52.22
2023-01-09T03:21:27.142Z,51.75
2023-01-09T03:24:13.330Z,51.98
2023-01-09T03:26:59.268Z,52.18
2023-01-09T03:29:45.197Z,52.24
2023-01-09T03:32:31.119Z,52.13
2023-01-09T03:35:16.907Z,52.36
2023-01-09T03:38:02.713Z,52.17
2023-01-09T03:40:48.497Z,52.05
2023-01-09T03:43:34.985Z,52.46
2023-01-09T03:46:20.980Z,52.03
2023-01-09T03:49:07.023Z,52.44
2023-01-09T03:51:52.832Z,52.31
2023-01-09T03:54:39.413Z,52.22
2023-01-09T03:57:25.694Z,52.43
2023-01-09T04:00:12.482Z,52.29
2023-01-09T04:02:58.271Z,52.32
2023-01-09T04:05:45.283Z,52.37
2023-01-09T04:08:31.220Z,52.32
2023-01-09T04:11:18.277Z,52.47
2023-01-09T04:14:04.085Z,52.45
2023-01-09T04:16:50.062Z,52.66
2023-01-09T04:19:35.948Z,52.52
2023-01-09T04:22:21.632Z,52.65
2023-01-09T04:25:07.918Z,52.76
2023-01-09T04:27:53.739Z,52.56
2023-01-09T04:30:39.622Z,52.48
2023-01-09T04:33:25.489Z,52.71
2023-01-09T04:36:11.501Z,52.58
2023-01-09T04:38:57.557Z,52.77
2023-01-09T04:41:49.226Z,52.75
2023-01-09T04:44:35.623Z,52.70
2023-01-09T04:47:23.818Z,52.51
2023-01-09T04:50:11.230Z,52.83
2023-01-09T04:52:57.551Z,53.03
2023-01-09T04:55:43.358Z,53.00
2023-01-09T04:58:29.090Z,52.68
2023-01-09T05:01:15.023Z,53.04
2023-01-09T05:04:01.014Z,53.00
2023-01-09T05:06:47.097Z,52.77
2023-01-09T05:09:33.368Z,53.09
2023-01-09T05:12:19.164Z,53.38
2023-01-09T05:15:06.210Z,53.38
2023-01-09T05:17:52.028Z,53.65
2023-01-09T05:20:38.417Z,53.62
2023-01-09T05:23:24.308Z,53.61
2023-01-09T05:26:10.100Z,53.48
2023-01-09T05:28:56.570Z,53.44
2023-01-09T05:31:42.447Z,53.67
2023-01-09T05:34:28.537Z,53.66
2023-01-09T05:37:14.745Z,53.52
2023-01-09T05:40:00.472Z,53.60
2023-01-09T05:42:46.363Z,53.76
2023-01-09T05:45:32.366Z,54.03
2023-01-09T05:48:18.053Z,53.84
2023-01-09T05:51:04.121Z,53.94
2023-01-09T05:53:49.833Z,53.67
2023-01-09T05:56:35.660Z,54.06
2023-01-09T05:59:21.678Z,53.74
2023-01-09T06:02:07.594Z,53.63
2023-01-09T06:04:53.385Z,53.77
2023-01-09T06:07:40.864Z,53.57
2023-01-09T06:10:26.542Z,53.47
2023-01-09T06:13:12.277Z,53.95
2023-01-09T06:15:58.241Z,53.45
2023-01-09T06:18:43.898Z,53.98
2023-01-09T06:21:29.730Z,53.85
2023-01-09T06:24:15.574Z,54.11
2023-01-09T06:27:01.358Z,54.11
2023-01-09T06:29:47.539Z,54.21
2023-01-09T06:32:33.197Z,54.01
2023-01-09T06:35:20.671Z,54.08
2023-01-09T06:38:06.735Z,53.75
2023-01-09T06:40:52.582Z,54.54
2023-01-09T06:43:38.836Z,54.11
2023-01-09T06:46:25.056Z,54.30
2023-01-09T06:49:10.843Z,54.21
2023-01-09T06:51:56.665Z,54.65
2023-01-09T06:54:42.513Z,54.71
2023-01-09T06:57:28.723Z,54.33
2023-01-09T07:00:15.199Z,54.29
2023-01-09T07:03:01.373Z,54.18
2023-01-09T07:05:47.608Z,55.04
2023-01-09T07:08:34.405Z,54.52
2023-01-09T07:11:20.412Z,54.14
2023-01-09T07:14:06.625Z,54.20
2023-01-09T07:16:52.625Z,53.96
2023-01-09T07:19:38.399Z,53.92
2023-01-09T07:22:24.335Z,54.50
2023-01-09T07:25:10.330Z,54.12
2023-01-09T07:27:56.438Z,54.33
2023-01-09T07:30:42.406Z,54.27
2023-01-09T07:33:28.369Z,54.14
2023-01-09T07:36:14.585Z,54.46
2023-01-09T07:39:00.267Z,53.95
2023-01-09T07:41:46.495Z,54.23
2023-01-09T07:44:33.779Z,53.64
2023-01-09T07:47:19.650Z,54.33
2023-01-09T07:50:06.096Z,54.54
2023-01-09T07:52:52.007Z,54.22
2023-01-09T07:55:37.937Z,54.53
2023-01-09T07:58:23.910Z,54.21
2023-01-09T08:01:10.077Z,54.49
2023-01-09T08:03:56.256Z,54.36
2023-01-09T08:06:42.250Z,54.84
2023-01-09T08:09:28.059Z,54.14
2023-01-09T08:12:13.906Z,54.39
2023-01-09T08:14:59.928Z,54.65
2023-01-09T08:17:46.299Z,54.90
2023-01-09T08:20:32.408Z,54.58
2023-01-09T08:23:18.460Z,54.89
2023-01-09T08:26:04.813Z,54.33
2023-01-09T08:28:51.026Z,54.33
2023-01-09T08:31:37.022Z,54.69
2023-01-09T08:34:23.181Z,54.32
2023-01-09T08:37:09.151Z,54.22
2023-01-09T08:39:55.220Z,54.01
2023-01-09T08:43:00.263Z,54.27
2023-01-09T08:46:05.616Z,54.09
2023-01-09T08:48:51.798Z,54.62
2023-01-09T08:51:37.629Z,54.47
2023-01-09T08:54:23.625Z,54.05
2023-01-09T08:57:09.744Z,54.58
2023-01-09T08:59:55.581Z,54.12
2023-01-09T09:02:41.491Z,54.02
2023-01-09T09:05:28.909Z,53.91
2023-01-09T09:08:16.467Z,54.24
2023-01-09T09:11:02.350Z,54.66
2023-01-09T09:13:48.325Z,54.18
2023-01-09T09:16:34.030Z,54.89
2023-01-09T09:19:20.148Z,54.38
2023-01-09T09:22:06.240Z,54.58
2023-01-09T09:24:52.227Z,54.31
2023-01-09T09:27:38.226Z,54.22
2023-01-09T09:30:25.401Z,54.30
2023-01-09T09:33:11.600Z,54.38
2023-01-09T09:36:00.735Z,54.44
2023-01-09T09:38:46.640Z,54.40
2023-01-09T09:41:57.317Z,54.12
2023-01-09T09:45:22.568Z,54.02
2023-01-09T09:48:32.986Z,53.88
2023-01-09T09:51:47.235Z,53.93
2023-01-09T09:54:38.295Z,54.16
2023-01-09T09:57:31.988Z,53.96
2023-01-09T10:00:20.649Z,54.30
2023-01-09T10:03:11.379Z,53.92
2023-01-09T10:05:59.088Z,53.93
2023-01-09T10:09:18.272Z,54.17
2023-01-09T10:12:19.656Z,54.19
2023-01-09T10:15:50.874Z,54.24
2023-01-09T10:18:53.405Z,54.14
2023-01-09T10:21:48.429Z,54.02
2023-01-09T10:24:49.720Z,54.00
2023-01-09T10:27:40.516Z,53.91
2023-01-09T10:31:01.733Z,53.51
2023-01-09T10:33:57.009Z,53.96
2023-01-09T10:37:06.310Z,54.37
2023-01-09T10:39:59.119Z,54.13
2023-01-09T10:42:49.184Z,53.89
2023-01-09T10:45:41.521Z,53.74
2023-01-09T10:48:38.944Z,53.57
2023-01-09T10:51:29.360Z,53.66
2023-01-09T10:54:22.183Z,53.81
2023-01-09T10:57:14.561Z,53.36
2023-01-09T11:00:00.435Z,53.84
2023-01-09T11:02:46.881Z,53.57
2023-01-09T11:05:34.084Z,53.54
2023-01-09T11:08:22.522Z,53.79
2023-01-09T11:11:09.472Z,53.63
2023-01-09T11:14:12.893Z,53.57
2023-01-09T11:17:01.412Z,53.44
2023-01-09T11:20:13.578Z,53.79
2023-01-09T11:23:00.089Z,53.88
2023-01-09T11:25:56.460Z,53.71
2023-01-09T11:28:42.584Z,53.73
2023-01-09T11:31:29.727Z,54.11
2023-01-09T11:34:21.039Z,53.93
2023-01-09T11:37:09.282Z,53.81
2023-01-09T11:39:56.372Z,53.97
2023-01-09T11:43:01.130Z,53.89
2023-01-09T11:46:00.717Z,54.01
2023-01-09T11:48:56.948Z,53.64
2023-01-09T11:51:44.183Z,53.70
2023-01-09T11:54:33.093Z,54.24
2023-01-09T11:57:20.857Z,54.09
2023-01-09T12:00:25.523Z,54.66
2023-01-09T12:03:38.668Z,54.18
2023-01-09T12:06:29.265Z,53.75
2023-01-09T12:09:44.039Z,54.68
2023-01-09T12:12:31.421Z,54.23
2023-01-09T12:15:51.438Z,53.94
2023-01-09T12:18:58.454Z,53.95
2023-01-09T12:21:53.797Z,54.20
2023-01-09T12:25:03.744Z,53.82
2023-01-09T12:28:28.066Z,54.01
2023-01-09T12:31:31.429Z,53.87
2023-01-09T12:34:32.579Z,54.34
2023-01-09T12:38:05.286Z,54.49
2023-01-09T12:41:10.580Z,53.75
2023-01-09T12:44:27.356Z,54.15
2023-01-09T12:47:45.665Z,54.35
2023-01-09T12:50:57.849Z,54.12
2023-01-09T12:54:21.194Z,53.97
2023-01-09T12:57:33.524Z,54.01
2023-01-09T13:00:39.583Z,54.26
2023-01-09T13:03:34.946Z,53.55
2023-01-09T13:06:23.557Z,53.65
2023-01-09T13:09:21.343Z,53.48
2023-01-09T13:12:21.890Z,54.00
2023-01-09T13:15:33.223Z,53.48
2023-01-09T13:18:22.178Z,53.85
2023-01-09T13:21:09.883Z,53.81
2023-01-09T13:24:27.647Z,53.37
2023-01-09T13:27:17.780Z,53.55
2023-01-09T13:30:21.121Z,53.01
2023-01-09T13:33:29.238Z,53.64
2023-01-09T13:36:30.502Z,53.78
2023-01-09T13:39:23.571Z,53.13
2023-01-09T13:42:36.494Z,53.78
2023-01-09T13:45:25.905Z,53.30
2023-01-09T13:48:14.101Z,52.97
2023-01-09T13:51:56.688Z,53.35
2023-01-09T13:54:52.254Z,53.02
2023-01-09T13:57:43.554Z,52.95
2023-01-09T14:00:29.298Z,52.93
2023-01-09T14:03:53.884Z,52.91
2023-01-09T14:06:39.729Z,52.68
2023-01-09T14:09:26.899Z,52.74
2023-01-09T14:12:13.634Z,52.99
2023-01-09T14:15:02.159Z,52.83
2023-01-09T14:17:50.260Z,53.16
2023-01-09T14:20:42.943Z,52.96
2023-01-09T14:26:46.122Z,52.49
2023-01-09T14:29:31.975Z,52.82
2023-01-09T14:32:21.048Z,52.56
2023-01-09T14:35:15.194Z,52.71
2023-01-09T14:38:19.590Z,52.67
2023-01-09T14:41:57.467Z,52.60
2023-01-09T14:44:43.189Z,52.85
2023-01-09T14:47:31.875Z,52.42
2023-01-09T14:50:19.502Z,52.64
2023-01-09T14:53:11.165Z,52.44
2023-01-09T14:56:06.730Z,52.55
2023-01-09T14:59:11.725Z,52.34
2023-01-09T15:01:59.445Z,52.33
2023-01-09T15:04:46.080Z,52.23
2023-01-09T15:07:40.444Z,52.54
2023-01-09T15:10:29.920Z,52.34
2023-01-09T15:13:20.194Z,52.51
2023-01-09T15:16:07.024Z,52.44
2023-01-09T15:18:55.891Z,52.18
2023-01-09T15:21:56.887Z,51.94
2023-01-09T15:24:43.108Z,52.26
2023-01-09T15:27:29.973Z,52.17
2023-01-09T15:30:20.943Z,52.40
2023-01-09T15:33:15.104Z,51.68
2023-01-09T15:36:03.488Z,52.47
2023-01-09T15:38:50.414Z,51.83
2023-01-09T15:41:55.545Z,51.67
2023-01-09T15:44:44.379Z,51.90
2023-01-09T15:47:32.739Z,52.06
2023-01-09T15:50:23.173Z,51.93
2023-01-09T15:53:16.482Z,51.85
2023-01-09T15:56:07.504Z,51.94
2023-01-09T15:58:54.477Z,52.24
2023-01-09T16:01:41.764Z,52.40
2023-01-09T16:04:27.899Z,52.10
2023-01-09T16:07:16.158Z,51.66
2023-01-09T16:10:02.304Z,52.17
2023-01-09T16:12:49.473Z,52.26
2023-01-09T16:15:36.118Z,51.74
2023-01-09T16:18:29.296Z,52.50
2023-01-09T16:21:38.855Z,52.30
2023-01-09T16:24:35.292Z,52.40
2023-01-09T16:27:31.097Z,52.52
2023-01-09T16:30:28.481Z,52.07
2023-01-09T16:33:27.025Z,51.92
2023-01-09T16:36:14.210Z,51.71
2023-01-09T16:39:01.537Z,51.99
2023-01-09T16:42:06.537Z,52.15
2023-01-09T16:44:52.161Z,52.06
2023-01-09T16:47:38.065Z,52.30
2023-01-09T16:50:25.145Z,51.97
2023-01-09T16:53:24.236Z,52.49
2023-01-09T16:56:30.451Z,52.01
2023-01-09T16:59:20.824Z,52.49
2023-01-09T17:02:17.851Z,51.89
2023-01-09T17:05:04.049Z,52.35
2023-01-09T17:07:50.109Z,52.14
2023-01-09T17:10:36.120Z,52.55
2023-01-09T17:13:22.263Z,52.41
2023-01-09T17:16:10.282Z,52.51
2023-01-09T17:18:56.550Z,52.39
2023-01-09T17:21:42.343Z,52.21
2023-01-09T17:24:46.800Z,52.42
2023-01-09T17:27:53.293Z,52.10
2023-01-09T17:30:39.311Z,52.63
2023-01-09T17:33:25.033Z,52.52
2023-01-09T17:36:32.136Z,52.18
2023-01-09T17:39:18.457Z,52.88
2023-01-09T17:42:04.281Z,52.75
2023-01-09T17:44:50.223Z,52.53
2023-01-09T17:47:36.056Z,52.85
2023-01-09T17:50:22.469Z,52.63
2023-01-09T17:53:08.508Z,53.08
2023-01-09T17:55:54.372Z,52.49
2023-01-09T17:58:40.171Z,53.14
2023-01-09T18:01:26.738Z,52.67
2023-01-09T18:04:12.983Z,52.78
2023-01-09T18:06:58.990Z,52.63
2023-01-09T18:09:45.511Z,52.76
2023-01-09T18:12:31.467Z,53.41
2023-01-09T18:15:17.632Z,53.98
2023-01-09T18:18:03.871Z,52.75
2023-01-09T18:20:51.226Z,53.16
2023-01-09T18:23:37.270Z,53.03
2023-01-09T18:26:23.595Z,53.27
2023-01-09T18:29:11.486Z,53.37
2023-01-09T18:31:58.134Z,53.43
2023-01-09T18:34:44.233Z,53.50
2023-01-09T18:37:30.027Z,53.03
2023-01-09T18:40:16.025Z,53.51
2023-01-09T18:43:05.030Z,53.41
2023-01-09T18:45:50.843Z,53.60
2023-01-09T18:48:36.913Z,53.93
2023-01-09T18:51:24.705Z,53.15
2023-01-09T18:54:13.181Z,53.54
2023-01-09T18:57:01.735Z,53.73
2023-01-09T18:59:48.085Z,53.51
2023-01-09T19:02:34.282Z,53.33
2023-01-09T19:05:20.296Z,53.46
2023-01-09T19:08:06.746Z,53.51
2023-01-09T19:10:53.631Z,53.84
2023-01-09T19:13:39.699Z,53.46
2023-01-09T19:16:25.871Z,53.45
2023-01-09T19:19:11.505Z,53.62
2023-01-09T19:21:57.778Z,54.25
2023-01-09T19:24:43.763Z,54.56
2023-01-09T19:27:30.503Z,54.47
2023-01-09T19:30:17.329Z,54.70
2023-01-09T19:33:03.786Z,54.65
2023-01-09T19:35:49.623Z,54.93
2023-01-09T19:38:35.817Z,55.27
2023-01-09T19:41:21.845Z,55.76
2023-01-09T19:44:08.349Z,55.58
2023-01-09T19:46:54.891Z,55.87
2023-01-09T19:49:40.773Z,55.43
2023-01-09T19:52:26.753Z,55.71
2023-01-09T19:55:15.450Z,55.68
2023-01-09T19:58:01.698Z,55.83
2023-01-09T20:00:47.565Z,56.18
2023-01-09T20:03:33.502Z,55.79
2023-01-09T20:06:24.188Z,56.47
2023-01-09T20:09:12.279Z,55.96
2023-01-09T20:11:58.437Z,56.37
2023-01-09T20:14:45.323Z,56.24
2023-01-09T20:17:32.932Z,55.94
2023-01-09T20:20:21.450Z,56.87
2023-01-09T20:23:07.611Z,57.08
2023-01-09T20:25:53.895Z,56.20
2023-01-09T20:28:39.903Z,57.73
2023-01-09T20:31:28.286Z,56.77
2023-01-09T20:34:15.034Z,56.33
2023-01-09T20:37:01.222Z,56.46
2023-01-09T20:39:47.548Z,56.27
2023-01-09T20:42:33.414Z,56.56
2023-01-09T20:45:19.553Z,56.66
2023-01-09T20:48:06.136Z,56.73
2023-01-09T20:50:52.287Z,56.20
2023-01-09T20:53:38.573Z,56.45
2023-01-09T20:56:28.531Z,56.35
2023-01-09T20:59:20.958Z,56.76
2023-01-09T21:02:07.067Z,56.81
2023-01-09T21:04:53.407Z,57.11
2023-01-09T21:07:39.252Z,56.72
2023-01-09T21:10:25.127Z,57.52
2023-01-09T21:13:11.111Z,57.52
2023-01-09T21:16:07.699Z,58.34
2023-01-09T21:18:55.335Z,57.41
2023-01-09T21:21:41.534Z,56.65
2023-01-09T21:24:27.583Z,57.03
2023-01-09T21:27:14.015Z,57.00
2023-01-09T21:30:00.000Z,57.53
2023-01-09T21:32:46.095Z,57.09
2023-01-09T21:35:32.036Z,56.74
2023-01-09T21:38:17.925Z,57.48
2023-01-09T21:41:22.805Z,56.55
2023-01-09T21:44:30.564Z,56.90
2023-01-09T21:47:16.733Z,57.05
2023-01-09T21:50:02.738Z,57.00
2023-01-09T21:52:49.160Z,57.12
2023-01-09T21:55:35.637Z,57.31
2023-01-09T21:58:21.677Z,56.83
2023-01-09T22:01:07.627Z,56.79
2023-01-09T22:03:54.786Z,56.49
2023-01-09T22:06:41.008Z,57.03
2023-01-09T22:09:27.266Z,56.75
2023-01-09T22:12:13.700Z,57.54
2023-01-09T22:14:59.773Z,56.83
2023-01-09T22:17:45.794Z,57.12
2023-01-09T22:20:31.947Z,57.24
2023-01-09T22:23:18.268Z,57.24
2023-01-09T22:26:09.554Z,57.28
2023-01-09T22:28:58.686Z,56.89
2023-01-09T22:31:44.864Z,57.50
2023-01-09T22:34:30.990Z,57.52
2023-01-09T22:37:16.903Z,57.04
2023-01-09T22:40:02.665Z,56.90
2023-01-09T22:42:52.263Z,57.33
2023-01-09T22:45:38.527Z,57.46
2023-01-09T22:48:25.014Z,57.34
2023-01-09T22:51:14.881Z,56.82
2023-01-09T22:54:01.159Z,57.34
2023-01-09T22:56:50.289Z,57.52
2023-01-09T22:59:36.253Z,57.42
2023-01-09T23:02:22.112Z,57.08
2023-01-09T23:05:08.299Z,58.51
2023-01-09T23:07:54.503Z,57.62
2023-01-09T23:10:40.905Z,58.26
2023-01-09T23:13:27.360Z,57.88
2023-01-09T23:16:13.323Z,57.89
2023-01-09T23:18:59.041Z,57.91
2023-01-09T23:21:45.645Z,57.92
2023-01-09T23:24:32.342Z,57.86
2023-01-09T23:27:18.332Z,57.46
2023-01-09T23:30:04.517Z,57.38
2023-01-09T23:32:50.479Z,57.60
2023-01-09T23:35:36.301Z,58.30
2023-01-09T23:38:22.229Z,57.66
2023-01-09T23:41:08.565Z,57.74
2023-01-09T23:43:54.443Z,57.71
2023-01-09T23:46:40.212Z,58.55
2023-01-09T23:49:26.036Z,57.98
2023-01-09T23:52:12.228Z,58.59
2023-01-09T23:54:58.201Z,57.87
2023-01-09T23:57:44.227Z,57.79
